createdAt,value
2022-11-08T00:00:45.722Z,99811.91
2022-11-08T00:03:14.174Z,99807.25
2022-11-08T00:06:00.862Z,99813.91
2022-11-08T00:08:47.722Z,99820.88
2022-11-08T00:11:34.514Z,99819.78
2022-11-08T00:14:03.035Z,99819.91
2022-11-08T00:16:31.561Z,99824.38
2022-11-08T00:18:59.876Z,99836.41
2022-11-08T00:21:28.805Z,99840.13
2022-11-08T00:23:57.122Z,99845.81
2022-11-08T00:26:25.416Z,99844.75
2022-11-08T00:28:53.701Z,99854.78
2022-11-08T00:31:22.002Z,99852.16
2022-11-08T00:33:50.356Z,99858.16
2022-11-08T00:36:18.790Z,99852.72
2022-11-08T00:38:47.099Z,99861.50
2022-11-08T00:41:15.479Z,99870.00
2022-11-08T00:43:43.802Z,99871.66
2022-11-08T00:46:12.247Z,99872.56
2022-11-08T00:48:40.531Z,99875.75
2022-11-08T00:51:12.131Z,99885.03
2022-11-08T00:53:41.769Z,99887.19
2022-11-08T00:56:13.630Z,99890.38
2022-11-08T00:58:45.181Z,99892.56
2022-11-08T01:01:16.342Z,99895.47
2022-11-08T01:03:45.097Z,99899.94
2022-11-08T01:06:15.508Z,99900.03
2022-11-08T01:08:44.503Z,99917.66
2022-11-08T01:11:16.574Z,99914.22
2022-11-08T01:13:45.761Z,99917.13
2022-11-08T01:16:18.250Z,99918.78
2022-11-08T01:18:47.435Z,99930.84
2022-11-08T01:21:16.099Z,99923.34
2022-11-08T01:23:46.241Z,99928.25
2022-11-08T01:26:17.924Z,99940.34
2022-11-08T01:28:46.281Z,99932.84
2022-11-08T01:31:17.480Z,99934.50
2022-11-08T01:33:51.040Z,99946.06
2022-11-08T01:36:23.772Z,99946.16
2022-11-08T01:38:52.829Z,99946.31
2022-11-08T01:41:24.542Z,99950.72
2022-11-08T01:43:58.218Z,99943.22
2022-11-08T01:46:39.054Z,99945.63
2022-11-08T01:49:29.360Z,99954.44
2022-11-08T01:52:13.411Z,99956.84
2022-11-08T01:55:04.611Z,99955.19
2022-11-08T01:57:41.371Z,99963.97
2022-11-08T02:00:13.400Z,99958.78
2022-11-08T02:02:44.843Z,99962.72
2022-11-08T02:05:25.996Z,99959.53
2022-11-08T02:08:08.708Z,99957.44
2022-11-08T02:10:43.042Z,99964.16
2022-11-08T02:13:15.266Z,99963.75
2022-11-08T02:15:44.767Z,99960.25
2022-11-08T02:18:14.453Z,99956.59
2022-11-08T02:20:57.734Z,99955.41
2022-11-08T02:23:30.975Z,99952.69
2022-11-08T02:25:59.329Z,99957.88
2022-11-08T02:28:27.663Z,99955.47
2022-11-08T02:30:55.992Z,99951.50
2022-11-08T02:33:24.864Z,99960.50
2022-11-08T02:35:58.154Z,99954.53
2022-11-08T02:38:28.317Z,99952.84
2022-11-08T02:40:58.840Z,99951.91
2022-11-08T02:43:27.622Z,99949.94
2022-11-08T02:45:55.919Z,99952.31
2022-11-08T02:48:24.241Z,99949.59
2022-11-08T02:50:53.715Z,99949.63
2022-11-08T02:53:22.233Z,99957.41
2022-11-08T02:55:50.612Z,99944.53
2022-11-08T02:58:19.301Z,99952.97
2022-11-08T03:00:47.858Z,99946.16
2022-11-08T03:03:16.204Z,99941.66
2022-11-08T03:05:44.536Z,99936.09
2022-11-08T03:08:12.890Z,99924.19
2022-11-08T03:10:41.247Z,99925.97
2022-11-08T03:13:09.858Z,99920.91
2022-11-08T03:15:38.183Z,99923.47
2022-11-08T03:18:07.076Z,99917.66
2022-11-08T03:20:36.259Z,99914.13
2022-11-08T03:23:07.544Z,99907.81
2022-11-08T03:25:36.687Z,99906.59
2022-11-08T03:28:07.308Z,99909.44
2022-11-08T03:30:37.401Z,99902.09
2022-11-08T03:33:06.382Z,99897.28
2022-11-08T03:35:34.700Z,99893.50
2022-11-08T03:38:03.044Z,99897.59
2022-11-08T03:40:31.370Z,99888.75
2022-11-08T03:42:59.805Z,99893.09
2022-11-08T03:45:28.216Z,99882.66
2022-11-08T03:47:56.531Z,99879.41
2022-11-08T03:50:24.955Z,99875.31
2022-11-08T03:52:55.298Z,99870.03
2022-11-08T03:55:26.128Z,99857.28
2022-11-08T03:57:54.682Z,99858.31
2022-11-08T04:00:26.258Z,99843.78
2022-11-08T04:02:56.021Z,99848.13
2022-11-08T04:05:24.424Z,99846.09
2022-11-08T04:07:52.741Z,99837.41
2022-11-08T04:10:21.125Z,99825.69
2022-11-08T04:13:07.818Z,99826.47
2022-11-08T04:15:36.170Z,99817.78
2022-11-08T04:18:22.960Z,99805.78
2022-11-08T04:21:09.771Z,99804.50
2022-11-08T04:23:38.774Z,99797.59
2022-11-08T04:26:09.275Z,99795.28
2022-11-08T04:28:39.624Z,99791.72
2022-11-08T04:31:16.278Z,99784.03
2022-11-08T04:33:45.283Z,99783.00
2022-11-08T04:36:18.435Z,99778.13
2022-11-08T04:38:50.688Z,99762.28
2022-11-08T04:41:22.407Z,99767.88
2022-11-08T04:43:52.510Z,99758.16
2022-11-08T04:46:23.193Z,99748.44
2022-11-08T04:48:53.521Z,99747.13
2022-11-08T04:51:24.631Z,99741.50
2022-11-08T04:53:52.957Z,99726.91
2022-11-08T04:56:22.777Z,99724.56
2022-11-08T04:58:56.616Z,99719.44
2022-11-08T05:01:27.543Z,99713.28
2022-11-08T05:03:56.354Z,99713.00
2022-11-08T05:06:30.566Z,99710.69
2022-11-08T05:09:00.559Z,99703.25
2022-11-08T05:11:31.026Z,99696.59
2022-11-08T05:13:59.674Z,99694.28
2022-11-08T05:16:30.966Z,99687.84
2022-11-08T05:19:00.143Z,99685.25
2022-11-08T05:22:04.091Z,99668.84
2022-11-08T05:24:32.471Z,99666.03
2022-11-08T05:27:00.795Z,99661.38
2022-11-08T05:29:29.109Z,99659.31
2022-11-08T05:31:57.448Z,99647.00
2022-11-08T05:34:25.816Z,99638.78
2022-11-08T05:36:54.141Z,99634.94
2022-11-08T05:39:22.469Z,99629.00
2022-11-08T05:41:50.800Z,99619.50
2022-11-08T05:44:19.338Z,99620.50
2022-11-08T05:46:47.998Z,99611.00
2022-11-08T05:49:16.392Z,99616.09
2022-11-08T05:51:44.747Z,99613.00
2022-11-08T05:54:14.130Z,99607.63
2022-11-08T05:56:42.443Z,99591.47
2022-11-08T05:59:10.868Z,99590.66
2022-11-08T06:01:39.290Z,99583.44
2022-11-08T06:04:07.676Z,99575.44
2022-11-08T06:06:35.999Z,99569.50
2022-11-08T06:09:04.443Z,99571.00
2022-11-08T06:11:32.738Z,99563.03
2022-11-08T06:14:01.061Z,99558.63
2022-11-08T06:16:29.616Z,99554.72
2022-11-08T06:19:00.599Z,99543.16
2022-11-08T06:21:29.881Z,99536.22
2022-11-08T06:23:58.219Z,99539.50
2022-11-08T06:26:26.643Z,99536.38
2022-11-08T06:28:55.006Z,99532.25
2022-11-08T06:31:23.459Z,99526.09
2022-11-08T06:33:51.942Z,99520.16
2022-11-08T06:36:22.087Z,99513.47
2022-11-08T06:38:56.106Z,99507.28
2022-11-08T06:41:25.075Z,99505.47
2022-11-08T06:43:53.415Z,99510.25
2022-11-08T06:46:21.767Z,99499.72
2022-11-08T06:48:50.130Z,99492.78
2022-11-08T06:51:18.556Z,99496.59
2022-11-08T06:53:46.982Z,99496.81
2022-11-08T06:56:15.490Z,99483.72
2022-11-08T06:58:43.806Z,99472.66
2022-11-08T07:01:12.711Z,99474.44
2022-11-08T07:03:41.279Z,99468.47
2022-11-08T07:06:09.960Z,99467.94
2022-11-08T07:08:38.623Z,99465.38
2022-11-08T07:11:08.335Z,99458.19
2022-11-08T07:13:37.179Z,99455.34
2022-11-08T07:16:05.695Z,99451.50
2022-11-08T07:18:34.315Z,99446.59
2022-11-08T07:21:03.744Z,99449.66
2022-11-08T07:23:32.750Z,99437.28
2022-11-08T07:26:05.909Z,99433.94
2022-11-08T07:28:34.232Z,99431.88
2022-11-08T07:31:05.903Z,99434.16
2022-11-08T07:33:34.921Z,99431.53
2022-11-08T07:36:03.493Z,99423.31
2022-11-08T07:38:32.341Z,99420.69
2022-11-08T07:41:02.028Z,99421.47
2022-11-08T07:43:31.575Z,99419.44
2022-11-08T07:46:02.212Z,99423.53
2022-11-08T07:48:32.011Z,99410.97
2022-11-08T07:51:00.393Z,99411.72
2022-11-08T07:53:28.798Z,99414.53
2022-11-08T07:55:59.122Z,99415.75
2022-11-08T07:58:27.566Z,99416.50
2022-11-08T08:01:01.247Z,99413.91
2022-11-08T08:03:29.655Z,99412.06
2022-11-08T08:06:01.000Z,99406.09
2022-11-08T08:08:31.148Z,99401.66
2022-11-08T08:11:01.584Z,99398.50
2022-11-08T08:13:30.739Z,99400.88
2022-11-08T08:16:01.053Z,99400.34
2022-11-08T08:18:30.786Z,99404.47
2022-11-08T08:20:59.714Z,99395.66
2022-11-08T08:23:28.126Z,99397.53
2022-11-08T08:25:57.050Z,99387.22
2022-11-08T08:28:25.687Z,99389.28
2022-11-08T08:30:54.147Z,99391.88
2022-11-08T08:33:34.148Z,99395.47
2022-11-08T08:36:03.267Z,99384.72
2022-11-08T08:38:33.151Z,99387.53
2022-11-08T08:41:02.519Z,99376.56
2022-11-08T08:43:33.698Z,99380.47
2022-11-08T08:46:07.016Z,99377.22
2022-11-08T08:48:36.713Z,99377.00
2022-11-08T08:51:05.105Z,99378.63
2022-11-08T08:53:33.600Z,99377.94
2022-11-08T08:56:04.404Z,99391.06
2022-11-08T08:58:32.923Z,99382.72
2022-11-08T09:03:59.508Z,99384.09
2022-11-08T09:06:27.954Z,99383.09
2022-11-08T09:08:56.318Z,99385.72
2022-11-08T09:11:24.665Z,99387.28
2022-11-08T09:13:52.984Z,99389.91
2022-11-08T09:16:21.339Z,99383.81
2022-11-08T09:18:49.807Z,99385.13
2022-11-08T09:21:18.415Z,99377.72
2022-11-08T09:23:46.802Z,99390.09
2022-11-08T09:26:15.169Z,99387.38
2022-11-08T09:28:43.510Z,99383.88
2022-11-08T09:31:13.232Z,99394.69
2022-11-08T09:33:42.800Z,99394.53
2022-11-08T09:36:14.940Z,99395.16
2022-11-08T09:38:43.311Z,99391.59
2022-11-08T09:41:38.383Z,99395.25
2022-11-08T09:44:41.009Z,99390.41
2022-11-08T09:47:27.333Z,99400.47
2022-11-08T09:50:17.191Z,99407.72
2022-11-08T09:52:51.489Z,99407.78
2022-11-08T09:55:48.137Z,99408.63
2022-11-08T09:58:42.158Z,99416.41
2022-11-08T10:01:13.989Z,99407.53
2022-11-08T10:03:54.519Z,99415.84
2022-11-08T10:06:47.149Z,99413.88
2022-11-08T10:09:16.204Z,99402.22
2022-11-08T10:12:02.624Z,99407.97
2022-11-08T10:15:03.376Z,99409.38
2022-11-08T10:18:05.063Z,99411.31
2022-11-08T10:21:02.424Z,99414.50
2022-11-08T10:23:41.320Z,99414.59
2022-11-08T10:26:27.423Z,99415.72
2022-11-08T10:29:10.653Z,99414.53
2022-11-08T10:31:42.607Z,99417.44
2022-11-08T10:34:25.053Z,99425.91
2022-11-08T10:37:01.742Z,99431.88
2022-11-08T10:39:36.652Z,99429.31
2022-11-08T10:42:23.167Z,99429.38
2022-11-08T10:44:52.077Z,99431.75
2022-11-08T10:47:29.719Z,99436.59
2022-11-08T10:50:03.381Z,99432.06
2022-11-08T10:52:42.177Z,99444.59
2022-11-08T10:55:25.216Z,99445.91
2022-11-08T10:57:53.688Z,99440.03
2022-11-08T11:00:22.089Z,99442.88
2022-11-08T11:03:07.290Z,99446.19
2022-11-08T11:05:37.971Z,99451.81
2022-11-08T11:08:09.033Z,99451.06
2022-11-08T11:10:46.005Z,99457.94
2022-11-08T11:15:59.365Z,99470.47
2022-11-08T11:18:59.789Z,99469.44
2022-11-08T11:21:36.070Z,99471.97
2022-11-08T11:24:16.545Z,99473.78
2022-11-08T11:26:50.932Z,99470.69
2022-11-08T11:29:24.861Z,99479.59
2022-11-08T11:31:54.937Z,99479.59
2022-11-08T11:34:45.157Z,99484.94
2022-11-08T11:37:13.461Z,99494.09
2022-11-08T11:39:53.073Z,99490.53
2022-11-08T11:42:46.755Z,99497.38
2022-11-08T11:45:25.998Z,99499.41
2022-11-08T11:47:57.914Z,99505.75
2022-11-08T11:50:42.005Z,99503.72
2022-11-08T11:53:30.891Z,99506.47
2022-11-08T11:56:23.645Z,99512.84
2022-11-08T11:59:06.637Z,99518.69
2022-11-08T12:01:55.596Z,99527.03
2022-11-08T12:05:15.220Z,99531.84
2022-11-08T12:08:04.341Z,99541.00
2022-11-08T12:11:05.130Z,99551.38
2022-11-08T12:13:42.114Z,99551.84
2022-11-08T12:16:48.414Z,99555.13
2022-11-08T12:19:22.365Z,99556.38
2022-11-08T12:22:21.662Z,99560.38
2022-11-08T12:25:27.109Z,99557.53
2022-11-08T12:28:18.218Z,99561.84
2022-11-08T12:31:02.881Z,99564.38
2022-11-08T12:33:41.397Z,99569.69
2022-11-08T12:36:30.791Z,99576.28
2022-11-08T12:39:33.127Z,99572.44
2022-11-08T12:42:20.001Z,99587.44
2022-11-08T12:45:09.402Z,99589.13
2022-11-08T12:47:48.009Z,99588.09
2022-11-08T12:50:37.886Z,99586.81
2022-11-08T12:53:24.949Z,99593.38
2022-11-08T12:55:57.822Z,99603.53
2022-11-08T12:58:40.386Z,99603.00
2022-11-08T13:01:15.505Z,99600.91
2022-11-08T13:03:46.950Z,99619.66
2022-11-08T13:06:39.413Z,99619.59
2022-11-08T13:09:39.927Z,99623.59
2022-11-08T13:12:26.714Z,99628.66
2022-11-08T13:14:55.228Z,99638.53
2022-11-08T13:17:27.570Z,99636.22
2022-11-08T13:20:05.083Z,99639.97
2022-11-08T13:22:33.873Z,99642.22
2022-11-08T13:25:04.357Z,99640.41
2022-11-08T13:27:34.810Z,99644.19
2022-11-08T13:30:26.681Z,99651.25
2022-11-08T13:32:58.064Z,99649.44
2022-11-08T13:35:42.408Z,99647.59
2022-11-08T13:38:32.064Z,99661.28
2022-11-08T13:41:18.678Z,99654.34
2022-11-08T13:43:48.321Z,99660.16
2022-11-08T13:46:31.506Z,99660.06
2022-11-08T13:49:02.042Z,99663.56
2022-11-08T13:51:44.517Z,99670.63
2022-11-08T13:54:24.733Z,99664.47
2022-11-08T13:56:53.836Z,99663.91
2022-11-08T13:59:34.607Z,99668.16
2022-11-08T14:02:26.222Z,99666.34
2022-11-08T14:04:56.761Z,99662.50
2022-11-08T14:07:49.204Z,99671.84
2022-11-08T14:10:52.139Z,99667.72
2022-11-08T14:13:26.099Z,99667.16
2022-11-08T14:16:02.710Z,99665.84
2022-11-08T14:18:33.573Z,99671.59
2022-11-08T14:21:05.006Z,99669.00
2022-11-08T14:23:40.416Z,99674.00
2022-11-08T14:26:14.638Z,99676.25
2022-11-08T14:28:48.149Z,99675.16
2022-11-08T14:31:30.271Z,99675.38
2022-11-08T14:33:59.498Z,99683.44
2022-11-08T14:36:30.402Z,99681.63
2022-11-08T14:39:13.659Z,99692.47
2022-11-08T14:41:47.819Z,99681.50
2022-11-08T14:44:20.027Z,99685.75
2022-11-08T14:46:50.145Z,99686.44
2022-11-08T14:49:31.584Z,99690.47
2022-11-08T14:52:18.185Z,99691.44
2022-11-08T14:54:48.680Z,99687.13
2022-11-08T14:57:31.581Z,99694.72
2022-11-08T15:00:02.719Z,99694.44
2022-11-08T15:02:31.416Z,99690.09
2022-11-08T15:04:59.920Z,99698.19
2022-11-08T15:07:28.750Z,99693.53
2022-11-08T15:09:57.288Z,99704.13
2022-11-08T15:12:26.539Z,99703.06
2022-11-08T15:15:02.678Z,99702.19
2022-11-08T15:17:44.535Z,99702.38
2022-11-08T15:20:14.018Z,99706.63
2022-11-08T15:22:45.021Z,99701.22
2022-11-08T15:25:16.174Z,99710.53
2022-11-08T15:27:58.051Z,99707.44
2022-11-08T15:30:32.439Z,99708.69
2022-11-08T15:33:00.918Z,99709.19
2022-11-08T15:35:38.406Z,99714.47
2022-11-08T15:38:24.050Z,99712.94
2022-11-08T15:40:54.721Z,99704.75
2022-11-08T15:43:35.191Z,99710.00
2022-11-08T15:46:06.384Z,99715.00
2022-11-08T15:48:35.278Z,99715.19
2022-11-08T15:51:06.101Z,99709.31
2022-11-08T15:53:34.523Z,99710.28
2022-11-08T15:56:05.676Z,99707.16
2022-11-08T15:58:37.618Z,99702.84
2022-11-08T16:01:07.549Z,99710.63
2022-11-08T16:03:36.514Z,99706.00
2022-11-08T16:06:04.888Z,99702.16
2022-11-08T16:08:33.194Z,99705.13
2022-11-08T16:11:02.347Z,99706.84
2022-11-08T16:13:40.050Z,99707.03
2022-11-08T16:16:16.757Z,99701.63
2022-11-08T16:18:46.150Z,99706.91
2022-11-08T16:21:15.223Z,99706.16
2022-11-08T16:23:43.917Z,99703.81
2022-11-08T16:26:18.167Z,99698.72
2022-11-08T16:28:46.502Z,99698.41
2022-11-08T16:31:17.098Z,99704.00
2022-11-08T16:33:48.060Z,99704.00
2022-11-08T16:36:22.250Z,99710.03
2022-11-08T16:38:54.701Z,99704.16
2022-11-08T16:41:24.705Z,99703.41
2022-11-08T16:43:53.147Z,99709.91
2022-11-08T16:46:23.242Z,99702.81
2022-11-08T16:48:58.182Z,99714.44
2022-11-08T16:51:27.147Z,99712.88
2022-11-08T16:53:55.740Z,99714.13
2022-11-08T16:56:24.674Z,99716.16
2022-11-08T16:58:52.976Z,99720.47
2022-11-08T17:01:25.778Z,99707.03
2022-11-08T17:03:54.154Z,99711.81
2022-11-08T17:06:22.596Z,99713.06
2022-11-08T17:08:50.983Z,99711.81
2022-11-08T17:11:22.934Z,99712.88
2022-11-08T17:13:53.537Z,99708.56
2022-11-08T17:16:21.959Z,99704.25
2022-11-08T17:18:53.101Z,99718.63
2022-11-08T17:21:43.786Z,99709.22
2022-11-08T17:24:15.711Z,99705.38
2022-11-08T17:26:48.342Z,99708.63
2022-11-08T17:29:16.652Z,99702.28
2022-11-08T17:31:45.041Z,99701.50
2022-11-08T17:34:13.412Z,99695.16
2022-11-08T17:36:41.775Z,99697.16
2022-11-08T17:39:12.851Z,99692.38
2022-11-08T17:41:41.323Z,99690.81
2022-11-08T17:44:09.644Z,99680.94
2022-11-08T17:46:38.033Z,99678.16
2022-11-08T17:49:06.415Z,99678.16
2022-11-08T17:51:34.768Z,99676.63
2022-11-08T17:54:03.112Z,99677.84
2022-11-08T17:56:31.881Z,99675.53
2022-11-08T17:59:00.273Z,99678.50
2022-11-08T18:01:28.856Z,99675.13
2022-11-08T18:03:57.231Z,99671.59
2022-11-08T18:06:25.668Z,99676.06
2022-11-08T18:08:54.065Z,99672.97
2022-11-08T18:11:22.379Z,99679.50
2022-11-08T18:13:51.334Z,99671.59
2022-11-08T18:16:23.326Z,99670.84
2022-11-08T18:18:52.790Z,99667.28
2022-11-08T18:21:21.703Z,99664.50
2022-11-08T18:23:51.118Z,99660.47
2022-11-08T18:26:19.961Z,99662.50
2022-11-08T18:28:48.603Z,99662.50
2022-11-08T18:31:19.539Z,99662.97
2022-11-08T18:33:48.501Z,99657.88
2022-11-08T18:36:22.520Z,99659.09
2022-11-08T18:38:52.392Z,99654.75
2022-11-08T18:41:28.134Z,99652.44
2022-11-08T18:43:57.853Z,99651.69
2022-11-08T18:46:28.221Z,99649.84
2022-11-08T18:48:56.835Z,99642.75
2022-11-08T18:51:25.239Z,99650.03
2022-11-08T18:53:53.762Z,99645.69
2022-11-08T18:56:23.051Z,99643.88
2022-11-08T18:58:51.633Z,99636.75
2022-11-08T19:01:20.607Z,99640.03
2022-11-08T19:03:49.170Z,99637.72
2022-11-08T19:06:17.491Z,99632.91
2022-11-08T19:08:45.806Z,99629.38
2022-11-08T19:11:15.409Z,99621.78
2022-11-08T19:13:43.864Z,99627.81
2022-11-08T19:16:20.683Z,99619.47
2022-11-08T19:18:50.739Z,99623.50
2022-11-08T19:21:24.739Z,99628.00
2022-11-08T19:23:57.409Z,99623.69
2022-11-08T19:26:28.610Z,99628.63
2022-11-08T19:28:58.374Z,99627.53
2022-11-08T19:31:27.817Z,99630.50
2022-11-08T19:33:56.784Z,99628.66
2022-11-08T19:36:28.158Z,99627.91
2022-11-08T19:38:58.790Z,99629.13
2022-11-08T19:41:29.560Z,99628.84
2022-11-08T19:43:58.031Z,99624.03
2022-11-08T19:46:29.919Z,99623.56
2022-11-08T19:49:00.439Z,99622.81
2022-11-08T19:51:31.802Z,99620.03
2022-11-08T19:54:03.564Z,99618.78
2022-11-08T19:59:20.661Z,99613.69
2022-11-08T20:01:49.181Z,99614.47
2022-11-08T20:04:19.381Z,99612.94
2022-11-08T20:06:47.778Z,99608.13
2022-11-08T20:09:16.553Z,99611.38
2022-11-08T20:11:45.140Z,99611.84
2022-11-08T20:14:15.185Z,99613.41
2022-11-08T20:16:50.665Z,99607.53
2022-11-08T20:19:21.708Z,99618.66
2022-11-08T20:21:50.180Z,99612.03
2022-11-08T20:24:19.756Z,99610.50
2022-11-08T20:26:48.347Z,99614.50
2022-11-08T20:40:32.865Z,99617.78
2022-11-08T20:43:01.219Z,99614.22
2022-11-08T20:45:29.579Z,99611.91
2022-11-08T20:47:57.923Z,99618.25
2022-11-08T20:50:26.313Z,99619.47
2022-11-08T20:52:54.636Z,99614.69
2022-11-08T20:55:25.108Z,99615.16
2022-11-08T20:57:53.464Z,99622.72
2022-11-08T21:00:37.786Z,99622.72
2022-11-08T21:03:06.583Z,99627.53
2022-11-08T21:05:35.136Z,99637.09
2022-11-08T21:08:54.039Z,99634.31
2022-11-08T21:10:57.178Z,99628.75
2022-11-08T21:13:29.592Z,99635.09
2022-11-08T21:16:14.002Z,99633.09
2022-11-08T21:18:47.485Z,99630.00
2022-11-08T21:21:19.424Z,99635.56
2022-11-08T21:23:49.294Z,99633.56
2022-11-08T21:26:20.099Z,99634.31
2022-11-08T21:28:48.700Z,99637.09
2022-11-08T21:31:17.526Z,99633.09
2022-11-08T21:33:45.852Z,99625.50
2022-11-08T21:36:14.844Z,99638.94
2022-11-08T21:38:43.156Z,99636.16
2022-11-08T21:41:12.450Z,99635.69
2022-11-08T21:43:45.465Z,99636.94
2022-11-08T21:46:23.555Z,99632.16
2022-11-08T21:49:14.332Z,99635.41
2022-11-08T21:51:42.688Z,99636.16
2022-11-08T21:54:10.994Z,99638.94
2022-11-08T21:56:40.006Z,99633.84
2022-11-08T21:59:08.311Z,99636.63
2022-11-08T22:01:36.651Z,99638.66
2022-11-08T22:04:05.046Z,99639.13
2022-11-08T22:06:34.897Z,99640.34
2022-11-08T22:09:04.676Z,99638.03
2022-11-08T22:11:32.956Z,99638.97
2022-11-08T22:14:01.274Z,99640.22
2022-11-08T22:16:29.577Z,99633.59
2022-11-08T22:19:04.576Z,99628.47
2022-11-08T22:21:41.588Z,99638.03
2022-11-08T22:24:18.966Z,99639.75
2022-11-08T22:26:48.369Z,99643.47
2022-11-08T22:29:17.454Z,99643.91
2022-11-08T22:31:46.249Z,99635.72
2022-11-08T22:34:16.060Z,99631.88
2022-11-08T22:36:45.776Z,99643.16
2022-11-08T22:39:19.318Z,99639.31
2022-11-08T22:41:50.897Z,99642.56
2022-11-08T22:44:20.206Z,99656.91
2022-11-08T22:46:49.443Z,99656.91
2022-11-08T22:49:18.118Z,99660.16
2022-11-08T22:51:46.513Z,99662.16
2022-11-08T22:54:14.848Z,99660.63
2022-11-08T22:56:43.250Z,99659.09
2022-11-08T22:59:11.614Z,99664.34
2022-11-08T23:01:39.877Z,99671.13
2022-11-08T23:04:12.009Z,99675.91
2022-11-08T23:06:41.469Z,99681.94
2022-11-08T23:09:10.129Z,99683.16
2022-11-08T23:11:56.617Z,99683.59
2022-11-08T23:14:43.212Z,99687.63
2022-11-08T23:17:11.511Z,99695.94
2022-11-08T23:19:58.067Z,99691.16
2022-11-08T23:22:44.512Z,99703.50
2022-11-08T23:25:12.885Z,99705.81
2022-11-08T23:27:59.549Z,99714.94
2022-11-08T23:30:46.092Z,99714.50
2022-11-08T23:33:14.389Z,99720.34
2022-11-08T23:36:02.541Z,99719.13
2022-11-08T23:38:30.984Z,99716.66
2022-11-08T23:41:25.277Z,99732.69
2022-11-08T23:44:12.110Z,99735.00
2022-11-08T23:46:41.451Z,99733.31
2022-11-08T23:49:09.749Z,99723.28
2022-11-08T23:51:38.103Z,99731.91
2022-11-08T23:54:06.598Z,99736.25
2022-11-08T23:56:34.952Z,99734.06
2022-11-08T23:59:03.304Z,99736.72
